Time;durP1;ratioP1;P1;durP2;ratioP2;P2;SDS_P1;SDS_P2;PMS_P1;PMS_P2;Temp;Humidity;BMP_temperature;BMP_pressure;BME280_temperature;BME280_humidity;BME280_pressure;Samples;Min_cycle;Max_cycle;Signal;HPM_P1;HPM_P2
2021/12/30 00:01:13;;;;;;;41.17;6.28;;;11.90;99.90;;;;;;5010619;28;20373;-82
2021/12/30 00:03:39;;;;;;;50.72;9.23;;;11.90;99.90;;;;;;5010300;28;20121;-82
2021/12/30 00:06:06;;;;;;;60.75;13.98;;;11.90;99.90;;;;;;5009989;28;20026;-82
2021/12/30 00:08:32;;;;;;;42.13;7.43;;;11.90;99.90;;;;;;4992296;28;20044;-82
2021/12/30 00:10:58;;;;;;;46.10;7.30;;;11.90;99.90;;;;;;5009981;28;20486;-82
2021/12/30 00:13:24;;;;;;;42.70;6.75;;;12.00;99.90;;;;;;5010240;28;20438;-82
2021/12/30 00:15:51;;;;;;;39.95;6.90;;;11.90;99.90;;;;;;5010317;28;20023;-84
2021/12/30 00:18:17;;;;;;;42.88;7.13;;;11.90;99.90;;;;;;5010232;28;20073;-84
2021/12/30 00:20:43;;;;;;;40.75;5.60;;;11.90;99.90;;;;;;5010003;28;20088;-84
2021/12/30 00:23:10;;;;;;;38.47;5.43;;;11.90;99.90;;;;;;5009980;28;20030;-84
2021/12/30 00:25:40;;;;;;;50.50;7.63;;;11.90;99.90;;;;;;5009985;28;20049;-84
2021/12/30 00:28:09;;;;;;;38.40;5.90;;;11.90;99.90;;;;;;5014211;28;20030;-84
2021/12/30 00:30:35;;;;;;;46.78;6.80;;;11.90;99.90;;;;;;4996279;28;20089;-84
2021/12/30 00:33:01;;;;;;;42.78;5.35;;;11.90;99.90;;;;;;5013892;28;20045;-84
2021/12/30 00:35:26;;;;;;;50.35;6.30;;;11.90;99.90;;;;;;5013875;28;20029;-84
2021/12/30 00:37:52;;;;;;;36.22;5.05;;;11.80;99.90;;;;;;5013936;28;20028;-84
2021/12/30 00:40:18;;;;;;;50.70;6.85;;;11.80;99.90;;;;;;4996342;28;20018;-84
2021/12/30 00:42:43;;;;;;;47.17;6.60;;;11.80;99.90;;;;;;4996359;28;20033;-84
2021/12/30 00:45:09;;;;;;;42.45;5.78;;;11.80;99.90;;;;;;5013937;28;20037;-84
2021/12/30 00:47:35;;;;;;;32.42;5.53;;;11.80;99.90;;;;;;5013428;28;20498;-84
2021/12/30 00:50:01;;;;;;;44.88;6.30;;;11.70;99.90;;;;;;5013440;28;20482;-84
2021/12/30 00:52:27;;;;;;;46.40;7.47;;;11.70;99.90;;;;;;5013654;28;20126;-84
2021/12/30 00:54:52;;;;;;;45.75;5.93;;;11.70;99.90;;;;;;5013447;28;20112;-82
2021/12/30 00:57:18;;;;;;;41.92;5.80;;;11.80;99.90;;;;;;5013680;28;20026;-82
2021/12/30 00:59:44;;;;;;;39.03;6.43;;;11.80;99.90;;;;;;5013586;28;20018;-82
2021/12/30 01:02:10;;;;;;;39.83;5.70;;;11.70;99.90;;;;;;5013562;28;20060;-82
2021/12/30 01:04:36;;;;;;;45.33;6.80;;;11.70;99.90;;;;;;5013259;28;20045;-82
2021/12/30 01:07:01;;;;;;;40.28;5.75;;;11.70;99.90;;;;;;5013258;28;20049;-82
2021/12/30 01:09:27;;;;;;;49.38;6.70;;;11.80;99.90;;;;;;5013259;28;20026;-82
2021/12/30 01:11:55;;;;;;;38.17;6.15;;;11.80;99.90;;;;;;5013368;28;20096;-82
2021/12/30 01:14:24;;;;;;;44.85;6.72;;;11.80;99.90;;;;;;5013122;28;20033;-82
2021/12/30 01:16:54;;;;;;;41.78;6.28;;;11.80;99.90;;;;;;5013138;28;20029;-84
2021/12/30 01:22:06;;;;;;;44.33;6.07;;;11.90;99.90;;;;;;5013432;28;20045;-84
2021/12/30 01:24:32;;;;;;;53.78;6.45;;;11.90;99.90;;;;;;5013198;28;20030;-84
2021/12/30 01:26:58;;;;;;;45.72;5.93;;;11.90;99.90;;;;;;5013074;28;20040;-82
2021/12/30 01:29:26;;;;;;;39.17;5.85;;;11.90;99.90;;;;;;5012799;28;20034;-82
2021/12/30 01:31:52;;;;;;;42.63;7.38;;;12.00;99.90;;;;;;5012951;28;20026;-82
2021/12/30 01:34:17;;;;;;;42.80;6.45;;;12.00;99.90;;;;;;5012849;28;20140;-84
2021/12/30 01:36:43;;;;;;;39.78;6.95;;;12.00;99.90;;;;;;5012671;28;20401;-84
2021/12/30 01:39:12;;;;;;;48.55;7.35;;;12.00;99.90;;;;;;5011860;28;20101;-84
2021/12/30 01:41:40;;;;;;;40.47;6.15;;;12.00;99.90;;;;;;5013014;28;20046;-84
2021/12/30 01:44:05;;;;;;;51.92;7.15;;;12.00;99.90;;;;;;5012534;28;20041;-84
2021/12/30 01:46:40;;;;;;;43.97;6.78;;;12.00;99.90;;;;;;5012678;28;20026;-83
2021/12/30 01:49:06;;;;;;;38.53;6.32;;;12.00;99.90;;;;;;5012585;28;20401;-84
2021/12/30 01:51:35;;;;;;;36.05;6.43;;;12.00;99.90;;;;;;4994932;28;20113;-84
2021/12/30 01:54:01;;;;;;;37.22;6.07;;;12.00;99.90;;;;;;5012417;28;20054;-84
2021/12/30 01:56:27;;;;;;;37.08;5.88;;;12.10;99.90;;;;;;5012516;28;20107;-84
2021/12/30 01:58:54;;;;;;;47.60;6.82;;;12.10;99.90;;;;;;5012328;28;20037;-84
2021/12/30 02:01:20;;;;;;;39.92;6.63;;;12.10;99.90;;;;;;5012489;28;20067;-84
2021/12/30 02:03:46;;;;;;;39.72;7.00;;;12.20;99.90;;;;;;5012443;28;20144;-84
2021/12/30 02:06:12;;;;;;;44.33;6.50;;;12.20;99.90;;;;;;5012087;28;20024;-84
2021/12/30 02:08:38;;;;;;;42.95;5.95;;;12.20;99.90;;;;;;5012489;28;20079;-84
2021/12/30 02:11:04;;;;;;;47.28;6.32;;;12.20;99.90;;;;;;4994514;28;20418;-84
2021/12/30 02:13:29;;;;;;;51.10;7.47;;;12.30;99.90;;;;;;5012040;28;20471;-84
2021/12/30 02:16:00;;;;;;;41.75;8.73;;;12.30;99.90;;;;;;5011997;28;20026;-84
2021/12/30 02:18:26;;;;;;;39.47;7.18;;;12.30;99.90;;;;;;5012105;28;20045;-84
2021/12/30 02:21:00;;;;;;;45.80;7.22;;;12.30;99.90;;;;;;5011909;28;20018;-84
2021/12/30 02:23:28;;;;;;;40.47;5.37;;;12.30;99.90;;;;;;5012285;28;20109;-84
2021/12/30 02:25:58;;;;;;;37.35;5.97;;;12.30;99.90;;;;;;5012498;28;20025;-84
2021/12/30 02:28:27;;;;;;;40.65;6.35;;;12.40;99.90;;;;;;5011819;28;20416;-84
2021/12/30 02:30:55;;;;;;;42.83;5.97;;;12.40;99.90;;;;;;5011905;28;20026;-84
2021/12/30 02:33:21;;;;;;;35.92;6.38;;;12.40;99.90;;;;;;5011701;28;20025;-84
2021/12/30 02:35:47;;;;;;;36.25;5.63;;;12.40;99.90;;;;;;5011552;28;20263;-84
2021/12/30 02:38:16;;;;;;;36.65;5.50;;;12.40;99.90;;;;;;4994138;28;20286;-84
2021/12/30 02:40:48;;;;;;;39.00;5.88;;;12.40;99.90;;;;;;5011737;28;20490;-84
2021/12/30 02:43:18;;;;;;;38.20;5.55;;;12.50;99.90;;;;;;5011863;28;20389;-84
2021/12/30 02:45:45;;;;;;;39.42;6.13;;;12.40;99.90;;;;;;5011613;28;20022;-84
2021/12/30 02:48:20;;;;;;;38.30;5.95;;;12.50;99.90;;;;;;4993776;28;20437;-84
2021/12/30 02:50:48;;;;;;;34.05;6.75;;;12.50;99.90;;;;;;4993453;28;20034;-84
2021/12/30 02:53:14;;;;;;;37.58;5.55;;;12.50;99.90;;;;;;5011449;28;20417;-82
2021/12/30 02:55:42;;;;;;;45.35;6.13;;;12.60;99.90;;;;;;5011362;28;20414;-82
2021/12/30 02:58:08;;;;;;;41.55;5.30;;;12.60;99.90;;;;;;5011263;28;20018;-82
2021/12/30 03:00:35;;;;;;;37.80;5.63;;;12.60;99.90;;;;;;4993713;28;20030;-82
2021/12/30 03:03:01;;;;;;;37.25;5.68;;;12.70;99.90;;;;;;5011289;28;20033;-81
2021/12/30 03:05:27;;;;;;;48.78;6.53;;;12.60;99.90;;;;;;5011031;28;20048;-82
2021/12/30 03:07:53;;;;;;;37.97;5.60;;;12.70;99.90;;;;;;4993509;28;20496;-81
2021/12/30 03:10:22;;;;;;;35.50;5.15;;;12.70;99.90;;;;;;5011041;28;20060;-81
2021/12/30 03:12:56;;;;;;;46.28;6.07;;;12.60;99.90;;;;;;5010820;28;20026;-82
2021/12/30 03:15:23;;;;;;;36.67;5.07;;;12.70;99.90;;;;;;4993416;28;20064;-82
2021/12/30 03:17:50;;;;;;;36.40;4.78;;;12.70;99.90;;;;;;5010889;28;20064;-82
2021/12/30 03:20:16;;;;;;;35.33;4.13;;;12.60;99.90;;;;;;5010790;28;20057;-81
2021/12/30 03:22:44;;;;;;;39.03;5.28;;;12.60;99.90;;;;;;5010883;28;20022;-82
2021/12/30 03:25:13;;;;;;;37.30;4.05;;;12.60;99.90;;;;;;5011081;28;20114;-81
2021/12/30 03:27:39;;;;;;;38.47;5.15;;;12.60;99.90;;;;;;5010936;28;20053;-81
2021/12/30 03:30:08;;;;;;;47.42;5.13;;;12.60;99.90;;;;;;5010812;28;20578;-82
2021/12/30 03:32:35;;;;;;;39.88;5.43;;;12.60;99.90;;;;;;5010726;28;20054;-81
2021/12/30 03:35:00;;;;;;;35.65;3.90;;;12.70;99.90;;;;;;5010485;28;20028;-81
2021/12/30 03:37:26;;;;;;;22.95;3.92;;;12.60;99.90;;;;;;5010622;28;20108;-81
2021/12/30 03:39:52;;;;;;;35.80;4.97;;;12.60;99.90;;;;;;4992870;28;20025;-82
2021/12/30 03:42:18;;;;;;;31.88;4.80;;;12.70;99.90;;;;;;5010800;28;20478;-81
2021/12/30 03:44:45;;;;;;;42.13;4.60;;;12.70;99.90;;;;;;5010644;28;20025;-82
2021/12/30 03:47:17;;;;;;;37.88;4.97;;;12.70;99.90;;;;;;4992525;28;20041;-82
2021/12/30 03:49:45;;;;;;;37.92;4.28;;;12.60;99.90;;;;;;5010479;28;20363;-81
2021/12/30 03:52:15;;;;;;;36.15;4.60;;;12.70;99.90;;;;;;5010616;28;20026;-81
2021/12/30 03:54:41;;;;;;;29.83;4.68;;;12.70;99.90;;;;;;5010473;28;20010;-82
2021/12/30 03:57:07;;;;;;;36.17;4.57;;;12.70;99.90;;;;;;5010343;28;20041;-82
2021/12/30 03:59:33;;;;;;;35.45;4.53;;;12.70;99.90;;;;;;5010321;28;20022;-81
2021/12/30 04:01:58;;;;;;;31.67;4.20;;;12.70;99.90;;;;;;4991975;28;20034;-82
2021/12/30 04:04:24;;;;;;;41.10;4.43;;;12.60;99.90;;;;;;5010487;28;20034;-82
2021/12/30 04:06:50;;;;;;;26.92;4.07;;;12.60;99.90;;;;;;5010403;28;20360;-82
2021/12/30 04:09:15;;;;;;;32.95;4.03;;;12.60;99.90;;;;;;5010396;28;20376;-82
2021/12/30 04:11:41;;;;;;;37.60;4.68;;;12.60;99.90;;;;;;5010512;28;20029;-82
2021/12/30 04:14:07;;;;;;;33.40;4.07;;;12.60;99.90;;;;;;4992751;28;20458;-82
2021/12/30 04:16:34;;;;;;;39.75;4.25;;;12.60;99.90;;;;;;5010205;28;20033;-82
2021/12/30 04:19:01;;;;;;;23.95;3.97;;;12.60;99.90;;;;;;5010151;28;20049;-82
2021/12/30 04:21:27;;;;;;;31.60;4.20;;;12.60;99.90;;;;;;5010211;28;20021;-82
2021/12/30 04:23:53;;;;;;;38.28;4.78;;;12.60;99.90;;;;;;4992110;28;20030;-82
2021/12/30 04:26:19;;;;;;;40.88;3.97;;;12.70;99.90;;;;;;5010292;28;20086;-82
2021/12/30 04:28:44;;;;;;;36.28;4.18;;;12.70;99.90;;;;;;5010228;28;20030;-82
2021/12/30 04:31:11;;;;;;;23.80;3.55;;;12.70;99.90;;;;;;4992488;28;20033;-82
2021/12/30 04:33:40;;;;;;;29.02;4.72;;;12.70;99.90;;;;;;5010068;28;20445;-82
2021/12/30 04:36:06;;;;;;;34.25;4.00;;;12.80;99.90;;;;;;5009922;28;20034;-82
2021/12/30 04:38:33;;;;;;;36.20;4.90;;;12.80;99.90;;;;;;5009962;28;20030;-82
2021/12/30 04:40:59;;;;;;;28.00;3.53;;;12.80;99.90;;;;;;5009977;28;20018;-82
2021/12/30 04:43:25;;;;;;;30.80;3.63;;;12.80;99.90;;;;;;5009945;28;20477;-82
2021/12/30 04:45:51;;;;;;;29.25;3.60;;;12.80;99.90;;;;;;5010248;28;20461;-81
2021/12/30 04:48:18;;;;;;;21.95;3.40;;;12.90;99.90;;;;;;5009860;28;20517;-82
2021/12/30 04:50:46;;;;;;;28.23;3.42;;;12.90;99.90;;;;;;5009814;28;20022;-82
2021/12/30 04:53:18;;;;;;;32.05;3.88;;;12.90;99.90;;;;;;5009886;28;20043;-82
2021/12/30 04:55:44;;;;;;;31.70;4.38;;;12.90;99.90;;;;;;5009897;28;20115;-82
2021/12/30 04:58:11;;;;;;;26.67;3.22;;;12.90;99.90;;;;;;5009928;28;20116;-81
2021/12/30 05:00:36;;;;;;;30.40;3.40;;;12.90;99.90;;;;;;5009758;28;20034;-82
2021/12/30 05:05:29;;;;;;;24.92;3.30;;;12.90;99.90;;;;;;5009866;28;20292;-82
2021/12/30 05:07:55;;;;;;;32.92;3.40;;;12.90;99.90;;;;;;5009768;28;20030;-82
2021/12/30 05:10:20;;;;;;;25.58;3.53;;;12.90;99.90;;;;;;5009759;28;20152;-82
2021/12/30 05:12:46;;;;;;;29.58;3.40;;;12.90;99.90;;;;;;5011641;28;20026;-81
2021/12/30 05:15:12;;;;;;;33.63;3.40;;;12.90;99.90;;;;;;5013302;28;20053;-81
2021/12/30 05:17:39;;;;;;;27.70;3.60;;;12.90;99.90;;;;;;5013433;28;20143;-82
2021/12/30 05:20:06;;;;;;;29.83;3.50;;;12.90;99.90;;;;;;5013062;28;20022;-82
2021/12/30 05:22:31;;;;;;;26.15;3.10;;;12.90;99.90;;;;;;4995529;28;20030;-81
2021/12/30 05:24:57;;;;;;;24.05;3.28;;;12.90;99.90;;;;;;5012924;28;20033;-82
2021/12/30 05:27:23;;;;;;;30.50;3.80;;;12.90;99.90;;;;;;5013155;28;20046;-81
2021/12/30 05:29:48;;;;;;;32.03;3.90;;;12.90;99.90;;;;;;5013210;28;20014;-81
2021/12/30 05:32:14;;;;;;;22.05;3.20;;;12.90;99.90;;;;;;5013061;28;20044;-82
2021/12/30 05:34:40;;;;;;;29.48;4.18;;;12.90;99.90;;;;;;5012851;28;20495;-82
2021/12/30 05:37:05;;;;;;;27.67;4.00;;;12.90;99.90;;;;;;5012899;28;20120;-81
2021/12/30 05:39:35;;;;;;;33.35;4.55;;;12.90;99.90;;;;;;5012766;28;20076;-81
2021/12/30 05:42:00;;;;;;;25.27;3.55;;;12.90;99.90;;;;;;5012742;28;20022;-82
2021/12/30 05:44:26;;;;;;;35.35;4.07;;;12.90;99.90;;;;;;5012721;28;20049;-81
2021/12/30 05:46:52;;;;;;;28.00;3.33;;;13.00;99.90;;;;;;5012573;28;20434;-81
2021/12/30 05:49:17;;;;;;;24.80;3.60;;;13.00;99.90;;;;;;5012746;28;20109;-81
2021/12/30 05:51:43;;;;;;;25.38;3.60;;;12.90;99.90;;;;;;5012847;28;20053;-81
2021/12/30 05:54:09;;;;;;;27.90;3.85;;;13.00;99.90;;;;;;5012546;28;20030;-81
2021/12/30 05:56:34;;;;;;;30.63;4.00;;;13.00;99.90;;;;;;5012459;28;20033;-81
2021/12/30 05:59:00;;;;;;;29.45;3.38;;;13.00;99.90;;;;;;5012360;28;20068;-82
2021/12/30 06:01:26;;;;;;;28.42;4.03;;;13.00;99.90;;;;;;5012473;28;20482;-82
2021/12/30 06:03:51;;;;;;;29.50;3.83;;;13.00;99.90;;;;;;5012013;28;20502;-82
2021/12/30 06:06:17;;;;;;;24.98;3.78;;;13.00;99.90;;;;;;5012588;28;20053;-81
2021/12/30 06:08:42;;;;;;;31.45;3.78;;;13.00;99.90;;;;;;4994817;28;20549;-82
2021/12/30 06:11:08;;;;;;;25.80;3.80;;;13.00;99.90;;;;;;5012564;28;20025;-82
2021/12/30 06:13:34;;;;;;;27.90;3.40;;;13.00;99.90;;;;;;5012400;28;20026;-82
2021/12/30 06:16:00;;;;;;;25.13;3.10;;;12.90;99.90;;;;;;5012310;28;20503;-82
2021/12/30 06:18:25;;;;;;;24.42;3.45;;;12.90;99.90;;;;;;5012084;28;20030;-82
2021/12/30 06:20:51;;;;;;;30.08;3.20;;;12.90;99.90;;;;;;5012019;28;20030;-82
2021/12/30 06:23:17;;;;;;;31.17;3.75;;;12.90;99.90;;;;;;5011443;28;20034;-82
2021/12/30 06:25:43;;;;;;;24.48;3.60;;;12.90;99.90;;;;;;5011455;28;20022;-82
2021/12/30 06:28:09;;;;;;;24.98;3.45;;;12.80;99.90;;;;;;5011791;28;20083;-82
2021/12/30 06:30:35;;;;;;;32.95;3.60;;;12.80;99.90;;;;;;5012024;28;20028;-82
2021/12/30 06:33:01;;;;;;;20.40;3.35;;;12.80;99.90;;;;;;5012038;28;20029;-82
2021/12/30 06:35:31;;;;;;;37.00;4.68;;;12.70;99.90;;;;;;5012014;28;20494;-82
2021/12/30 06:37:59;;;;;;;37.95;4.28;;;12.70;99.90;;;;;;5011716;28;20028;-82
2021/12/30 06:40:24;;;;;;;40.58;5.80;;;12.70;99.90;;;;;;4993956;28;20033;-81
2021/12/30 06:42:50;;;;;;;33.73;6.63;;;12.70;99.90;;;;;;5011634;28;20026;-81
2021/12/30 06:45:16;;;;;;;42.22;6.35;;;12.70;99.90;;;;;;5011315;28;20223;-81
2021/12/30 06:47:44;;;;;;;35.65;5.50;;;12.70;99.90;;;;;;5011310;28;20046;-82
2021/12/30 06:50:11;;;;;;;40.20;5.43;;;12.60;99.90;;;;;;5011529;28;20089;-81
2021/12/30 06:52:38;;;;;;;30.17;5.00;;;12.70;99.90;;;;;;5011450;28;20030;-81
2021/12/30 06:55:03;;;;;;;41.70;5.25;;;12.70;99.90;;;;;;5011584;28;20033;-82
2021/12/30 06:57:29;;;;;;;31.88;4.78;;;12.80;99.90;;;;;;5011407;28;20022;-82
2021/12/30 06:59:55;;;;;;;43.17;4.88;;;12.80;99.90;;;;;;5011368;28;20022;-81
2021/12/30 07:02:21;;;;;;;30.92;4.90;;;12.90;99.90;;;;;;5011421;28;20026;-82
2021/12/30 07:04:47;;;;;;;31.95;5.07;;;12.90;99.90;;;;;;5010874;28;20030;-82
2021/12/30 07:07:13;;;;;;;36.88;4.70;;;12.90;99.90;;;;;;5011134;28;20033;-81
2021/12/30 07:09:39;;;;;;;30.38;4.68;;;12.90;99.90;;;;;;5011317;28;20069;-82
2021/12/30 07:12:06;;;;;;;35.17;5.95;;;12.90;99.90;;;;;;5011326;28;20084;-82
2021/12/30 07:14:31;;;;;;;34.78;5.60;;;12.90;99.90;;;;;;5011491;28;20029;-82
2021/12/30 07:16:57;;;;;;;39.38;5.85;;;12.80;99.90;;;;;;4993855;28;20026;-82
2021/12/30 07:19:23;;;;;;;42.28;5.72;;;12.80;99.90;;;;;;5010771;28;20391;-82
2021/12/30 07:21:52;;;;;;;46.63;6.57;;;12.80;99.90;;;;;;5010928;28;20104;-82
2021/12/30 07:24:20;;;;;;;41.70;6.45;;;12.80;99.90;;;;;;5010700;28;20463;-82
2021/12/30 07:26:47;;;;;;;49.97;6.75;;;12.80;99.90;;;;;;5010754;28;20080;-82
2021/12/30 07:29:13;;;;;;;45.63;7.72;;;12.70;99.90;;;;;;5010899;28;20117;-81
2021/12/30 07:31:38;;;;;;;38.95;6.93;;;12.70;99.90;;;;;;5011354;28;20093;-82
2021/12/30 07:34:04;;;;;;;55.90;7.63;;;12.70;99.90;;;;;;5010663;28;20502;-82
2021/12/30 07:36:30;;;;;;;55.42;8.68;;;12.70;99.90;;;;;;5010871;28;20106;-82
2021/12/30 07:38:56;;;;;;;43.10;9.20;;;12.70;99.90;;;;;;5010897;28;20030;-82
2021/12/30 07:41:22;;;;;;;52.53;8.50;;;12.60;99.90;;;;;;5010562;28;20411;-82
2021/12/30 07:43:48;;;;;;;46.97;7.80;;;12.60;99.90;;;;;;5010375;28;20034;-82
2021/12/30 07:46:14;;;;;;;45.97;9.27;;;12.60;99.90;;;;;;5010446;28;20030;-82
2021/12/30 07:48:40;;;;;;;56.92;8.20;;;12.70;99.90;;;;;;5010385;28;20045;-82
2021/12/30 07:51:06;;;;;;;44.83;7.63;;;12.70;99.90;;;;;;5010501;28;20076;-82
2021/12/30 07:53:32;;;;;;;60.63;9.38;;;12.70;99.90;;;;;;5010611;28;20026;-82
2021/12/30 07:56:01;;;;;;;48.45;7.72;;;12.60;99.90;;;;;;5010458;28;20363;-82
2021/12/30 07:58:27;;;;;;;44.33;7.28;;;12.70;99.90;;;;;;5010400;28;20026;-82
2021/12/30 08:00:52;;;;;;;59.80;8.25;;;12.70;99.90;;;;;;5010415;28;20388;-82
2021/12/30 08:03:19;;;;;;;50.75;7.28;;;12.70;99.90;;;;;;5009999;28;20042;-83
2021/12/30 08:05:45;;;;;;;50.17;6.40;;;12.60;99.90;;;;;;5010412;28;20064;-82
2021/12/30 08:08:11;;;;;;;41.88;7.03;;;12.60;99.90;;;;;;5010255;28;20065;-82
2021/12/30 08:10:37;;;;;;;50.70;7.00;;;12.60;99.90;;;;;;5010222;28;20052;-82
2021/12/30 08:13:02;;;;;;;55.55;6.50;;;12.60;99.90;;;;;;5010429;28;20478;-82
2021/12/30 08:15:29;;;;;;;43.63;6.45;;;12.60;99.90;;;;;;5010201;28;20113;-82
2021/12/30 08:17:54;;;;;;;33.17;5.53;;;12.60;99.90;;;;;;4992720;28;20034;-82
2021/12/30 08:20:22;;;;;;;34.45;17.50;;;12.60;99.90;;;;;;5009866;28;20025;-82
2021/12/30 08:22:48;;;;;;;47.88;7.00;;;12.60;99.90;;;;;;5010056;28;20026;-82
2021/12/30 08:25:14;;;;;;;50.10;6.45;;;12.60;99.90;;;;;;5009919;28;20042;-82
2021/12/30 08:27:41;;;;;;;50.80;8.30;;;12.60;99.90;;;;;;5010232;28;20018;-82
2021/12/30 08:30:10;;;;;;;44.35;8.60;;;12.60;99.90;;;;;;5009928;28;20056;-82
2021/12/30 08:32:36;;;;;;;24.60;5.40;;;12.60;99.90;;;;;;5010451;28;20045;-82
2021/12/30 08:35:02;;;;;;;43.47;7.13;;;12.70;99.90;;;;;;5009830;28;20474;-83
2021/12/30 08:37:28;;;;;;;34.80;5.70;;;12.70;99.90;;;;;;5010055;28;20029;-82
2021/12/30 08:39:54;;;;;;;37.50;7.55;;;12.70;99.90;;;;;;5009980;28;20030;-82
2021/12/30 08:42:22;;;;;;;34.63;5.32;;;12.80;99.90;;;;;;5009891;28;20029;-82
2021/12/30 08:44:48;;;;;;;40.88;5.68;;;12.80;99.90;;;;;;5009554;28;20044;-82
2021/12/30 08:47:15;;;;;;;35.90;5.55;;;12.80;99.90;;;;;;5010478;28;20445;-83
2021/12/30 08:49:44;;;;;;;46.30;6.50;;;12.90;99.90;;;;;;5013569;28;20029;-83
2021/12/30 08:52:11;;;;;;;38.00;6.18;;;13.00;99.90;;;;;;5013650;28;20486;-83
2021/12/30 08:54:37;;;;;;;31.45;5.72;;;13.00;99.90;;;;;;5013964;28;20116;-82
2021/12/30 08:57:04;;;;;;;32.00;6.40;;;13.10;99.90;;;;;;5013796;28;20025;-83
2021/12/30 08:59:30;;;;;;;44.75;6.60;;;13.10;99.90;;;;;;5013606;28;20034;-82
2021/12/30 09:01:55;;;;;;;39.38;6.28;;;13.10;99.90;;;;;;5013640;28;20116;-83
2021/12/30 09:04:21;;;;;;;38.90;5.78;;;13.10;99.90;;;;;;5013176;28;20121;-83
2021/12/30 09:06:47;;;;;;;38.80;7.18;;;13.20;99.90;;;;;;5013489;28;20069;-82
2021/12/30 09:09:13;;;;;;;40.85;7.03;;;13.20;99.90;;;;;;4995677;28;20113;-82
2021/12/30 09:11:39;;;;;;;38.85;6.93;;;13.20;99.90;;;;;;4995690;28;20081;-83
2021/12/30 09:14:04;;;;;;;46.50;7.38;;;13.30;99.90;;;;;;5013490;28;20026;-82
2021/12/30 09:16:30;;;;;;;41.65;7.22;;;13.30;99.90;;;;;;5013671;28;20327;-82
2021/12/30 09:18:57;;;;;;;38.25;6.70;;;13.30;99.90;;;;;;5013579;28;20030;-82
2021/12/30 09:21:22;;;;;;;35.47;5.70;;;13.30;99.90;;;;;;5013359;28;20018;-83
2021/12/30 09:23:48;;;;;;;45.67;8.73;;;13.30;99.90;;;;;;5013151;28;20049;-82
2021/12/30 09:26:14;;;;;;;55.42;9.80;;;13.20;99.90;;;;;;5013077;28;20218;-82
2021/12/30 09:28:40;;;;;;;51.95;7.85;;;13.20;99.90;;;;;;4995285;28;20368;-83
2021/12/30 09:31:06;;;;;;;48.20;8.25;;;13.20;99.90;;;;;;5013036;28;20037;-83
2021/12/30 09:33:33;;;;;;;59.50;8.45;;;13.10;99.90;;;;;;5013033;28;20025;-83
2021/12/30 09:36:01;;;;;;;42.05;7.93;;;13.10;99.90;;;;;;5013042;28;20037;-83
2021/12/30 09:38:28;;;;;;;55.53;8.27;;;13.20;99.90;;;;;;5013345;28;20670;-83
2021/12/30 09:40:54;;;;;;;48.70;9.18;;;13.20;99.90;;;;;;5012901;28;20044;-83
2021/12/30 09:43:20;;;;;;;42.97;8.75;;;13.20;99.90;;;;;;5012873;28;20445;-82
2021/12/30 09:45:45;;;;;;;44.20;7.78;;;13.30;99.90;;;;;;5012880;28;20121;-83
2021/12/30 09:48:14;;;;;;;43.45;8.77;;;13.30;99.90;;;;;;5012532;28;20305;-83
2021/12/30 09:50:46;;;;;;;39.67;7.68;;;13.30;99.90;;;;;;5012549;28;20092;-83
2021/12/30 09:53:12;;;;;;;38.67;7.90;;;13.40;99.90;;;;;;5012591;28;20100;-82
2021/12/30 09:55:39;;;;;;;37.58;7.47;;;13.50;99.90;;;;;;5012759;28;20057;-83
2021/12/30 09:58:06;;;;;;;37.30;8.07;;;13.50;99.90;;;;;;5012349;28;20101;-83
2021/12/30 10:00:32;;;;;;;29.33;6.82;;;13.60;99.90;;;;;;4994235;28;20469;-82
2021/12/30 10:02:58;;;;;;;39.80;7.28;;;13.60;99.90;;;;;;4995079;28;20119;-83
2021/12/30 10:05:27;;;;;;;27.52;6.95;;;13.70;99.90;;;;;;5012330;28;20030;-82
2021/12/30 10:08:24;;;;;;;38.45;8.30;;;13.70;99.90;;;;;;5012319;28;20030;-82
2021/12/30 10:10:56;;;;;;;33.33;6.00;;;13.80;99.90;;;;;;5012355;28;20034;-82
2021/12/30 10:13:23;;;;;;;32.08;5.78;;;13.90;99.90;;;;;;5012298;28;20427;-82
2021/12/30 10:15:52;;;;;;;27.98;7.05;;;13.90;99.90;;;;;;5012296;28;20033;-83
2021/12/30 10:18:18;;;;;;;28.15;4.80;;;14.00;99.90;;;;;;5012207;28;20463;-83
2021/12/30 10:20:44;;;;;;;23.27;6.00;;;14.10;99.90;;;;;;5012182;28;20034;-82
2021/12/30 10:23:12;;;;;;;25.55;6.32;;;14.10;99.90;;;;;;5012271;28;20286;-83
2021/12/30 10:25:41;;;;;;;24.80;5.95;;;14.10;99.90;;;;;;5012083;28;20080;-82
2021/12/30 10:28:27;;;;;;;20.58;4.65;;;14.20;99.90;;;;;;4994114;28;20124;-83
2021/12/30 10:31:15;;;;;;;24.45;4.50;;;14.20;99.90;;;;;;5011791;28;20110;-83
2021/12/30 10:34:07;;;;;;;19.90;4.38;;;14.30;99.90;;;;;;5011770;28;20049;-82
2021/12/30 10:36:37;;;;;;;21.33;4.43;;;14.40;99.90;;;;;;5011483;28;20034;-83
2021/12/30 10:39:26;;;;;;;23.23;4.13;;;14.50;99.90;;;;;;4994389;28;20026;-82
2021/12/30 10:42:05;;;;;;;19.50;4.68;;;14.50;99.90;;;;;;5012030;28;20104;-83
2021/12/30 10:44:54;;;;;;;21.42;5.15;;;14.50;99.90;;;;;;4993982;28;20037;-83
2021/12/30 10:47:31;;;;;;;22.35;5.10;;;14.50;99.90;;;;;;5011399;28;20044;-83
2021/12/30 10:50:09;;;;;;;20.73;3.67;;;14.50;99.90;;;;;;5011174;28;20573;-83
2021/12/30 10:52:49;;;;;;;31.20;4.70;;;14.50;99.90;;;;;;5011477;28;20026;-83
2021/12/30 10:55:15;;;;;;;17.48;3.78;;;14.60;99.90;;;;;;5011571;28;20034;-82
2021/12/30 10:57:42;;;;;;;24.05;5.43;;;14.50;99.90;;;;;;4994022;28;20037;-82
2021/12/30 11:00:09;;;;;;;19.23;4.20;;;14.60;99.90;;;;;;5011844;28;20020;-83
2021/12/30 11:02:36;;;;;;;21.10;3.70;;;14.60;99.90;;;;;;5011487;28;20117;-82
2021/12/30 11:05:08;;;;;;;21.15;4.45;;;14.60;99.90;;;;;;5009765;28;20566;-82
2021/12/30 11:07:51;;;;;;;17.95;3.60;;;14.70;99.90;;;;;;5011259;28;20014;-82
2021/12/30 11:10:31;;;;;;;21.88;3.58;;;14.70;99.90;;;;;;4993105;28;20376;-82
2021/12/30 11:13:13;;;;;;;20.77;4.07;;;14.80;99.90;;;;;;4993320;28;20026;-82
2021/12/30 11:15:39;;;;;;;24.83;4.97;;;14.80;99.90;;;;;;5011204;28;20107;-82
2021/12/30 11:18:10;;;;;;;22.15;3.67;;;14.90;99.90;;;;;;5011495;28;20057;-83
2021/12/30 11:20:41;;;;;;;23.83;3.92;;;14.90;99.90;;;;;;5011114;28;20036;-83
2021/12/30 11:23:07;;;;;;;17.38;3.28;;;15.00;99.90;;;;;;4993325;28;20507;-82
2021/12/30 11:25:33;;;;;;;19.33;4.07;;;15.00;99.90;;;;;;5011019;28;20033;-83
2021/12/30 11:27:59;;;;;;;20.83;3.78;;;15.20;99.90;;;;;;5004398;28;20625;-82
2021/12/30 11:30:25;;;;;;;23.38;3.92;;;15.20;99.90;;;;;;5010936;28;20104;-83
2021/12/30 11:32:52;;;;;;;15.40;3.67;;;15.20;99.90;;;;;;4992741;28;20402;-82
2021/12/30 11:35:19;;;;;;;13.95;3.00;;;15.30;99.90;;;;;;5009958;28;20109;-83
2021/12/30 11:37:46;;;;;;;16.58;3.60;;;15.40;99.90;;;;;;5010700;28;20244;-82
2021/12/30 11:40:15;;;;;;;22.15;3.78;;;15.40;99.90;;;;;;5010480;28;20030;-83
2021/12/30 11:42:43;;;;;;;14.20;3.13;;;15.40;99.90;;;;;;4993040;28;20026;-82
2021/12/30 11:45:34;;;;;;;14.88;3.58;;;15.40;99.90;;;;;;5010645;28;20041;-83
2021/12/30 11:48:05;;;;;;;13.90;4.45;;;15.50;99.90;;;;;;5010330;28;20074;-82
2021/12/30 11:50:37;;;;;;;19.48;3.45;;;15.50;99.90;;;;;;5010355;28;20022;-83
2021/12/30 11:53:24;;;;;;;16.98;3.28;;;15.60;99.90;;;;;;5010473;28;20397;-83
2021/12/30 11:55:56;;;;;;;14.13;3.40;;;15.60;99.90;;;;;;4992777;28;20071;-82
2021/12/30 11:58:32;;;;;;;17.70;2.97;;;15.60;99.90;;;;;;4992732;28;20410;-83
2021/12/30 12:01:17;;;;;;;14.63;2.80;;;15.60;99.90;;;;;;5010487;28;20594;-82
2021/12/30 12:04:01;;;;;;;11.15;2.83;;;15.70;99.90;;;;;;5010385;28;20237;-82
2021/12/30 12:06:30;;;;;;;16.23;2.83;;;15.70;99.90;;;;;;5010429;28;20034;-83
2021/12/30 12:09:06;;;;;;;17.52;2.90;;;15.80;99.90;;;;;;4992577;28;20062;-83
2021/12/30 12:11:40;;;;;;;15.93;2.45;;;15.80;99.90;;;;;;5010279;28;20386;-83
2021/12/30 12:14:23;;;;;;;9.68;2.70;;;15.90;99.90;;;;;;5010099;28;20026;-83
2021/12/30 12:17:04;;;;;;;11.82;2.63;;;16.00;99.90;;;;;;5010251;28;20030;-83
2021/12/30 12:19:40;;;;;;;8.73;2.67;;;16.00;99.90;;;;;;5010225;28;20045;-83
2021/12/30 12:22:28;;;;;;;13.73;2.70;;;16.10;99.90;;;;;;5009447;28;20033;-83
2021/12/30 12:25:28;;;;;;;9.25;3.22;;;16.10;99.90;;;;;;5010006;28;20175;-83
2021/12/30 12:27:55;;;;;;;13.27;2.20;;;16.10;99.90;;;;;;4977350;28;20125;-83
2021/12/30 12:30:34;;;;;;;12.60;2.83;;;16.10;99.90;;;;;;5010061;28;20029;-83
2021/12/30 12:33:27;;;;;;;7.47;1.90;;;16.10;99.90;;;;;;5010319;28;20379;-83
2021/12/30 12:35:53;;;;;;;9.40;2.47;;;16.20;99.90;;;;;;5008793;28;20125;-83
2021/12/30 12:38:42;;;;;;;6.45;2.13;;;16.20;99.90;;;;;;5010049;28;20097;-83
2021/12/30 12:41:16;;;;;;;10.60;2.15;;;16.20;99.90;;;;;;5010110;28;20033;-83
2021/12/30 12:43:42;;;;;;;10.50;2.20;;;16.30;99.90;;;;;;5010167;28;20507;-83
2021/12/30 12:46:08;;;;;;;9.70;2.42;;;16.20;99.90;;;;;;5009943;28;20026;-83
2021/12/30 12:48:40;;;;;;;13.50;2.38;;;16.30;99.90;;;;;;5009841;28;20490;-83